createdAt,value
2023-09-04T00:01:52.500Z,97207.88
2023-09-04T00:04:19.100Z,97203.63
2023-09-04T00:06:45.684Z,97207.09
2023-09-04T00:09:12.297Z,97215.94
2023-09-04T00:11:38.894Z,97213.25
2023-09-04T00:14:05.487Z,97213.63
2023-09-04T00:16:32.103Z,97221.69
2023-09-04T00:18:58.704Z,97228.22
2023-09-04T00:21:25.313Z,97225.53
2023-09-04T00:23:51.910Z,97220.94
2023-09-04T00:26:18.490Z,97222.84
2023-09-04T00:28:45.092Z,97223.63
2023-09-04T00:31:11.703Z,97220.94
2023-09-04T00:33:38.318Z,97217.09
2023-09-04T00:36:04.920Z,97216.31
2023-09-04T00:38:31.511Z,97216.31
2023-09-04T00:40:58.137Z,97213.63
2023-09-04T00:43:24.729Z,97208.59
2023-09-04T00:45:51.386Z,97217.88
2023-09-04T00:48:18.010Z,97220.94
2023-09-04T00:50:44.610Z,97214.03
2023-09-04T00:53:11.204Z,97220.94
2023-09-04T00:55:37.802Z,97213.25
2023-09-04T00:58:04.408Z,97218.25
2023-09-04T01:00:31.034Z,97213.63
2023-09-04T01:02:57.736Z,97219.00
2023-09-04T01:05:24.515Z,97214.03
2023-09-04T05:10:27.628Z,97188.69
2023-09-04T05:12:54.233Z,97187.97
2023-09-04T05:15:20.828Z,97188.41
2023-09-04T05:17:47.551Z,97187.28
2023-09-04T05:20:14.190Z,97199.97
2023-09-04T05:22:40.818Z,97198.03
2023-09-04T05:25:07.420Z,97194.22
2023-09-04T05:27:34.014Z,97203.78
2023-09-04T05:30:00.622Z,97205.19
2023-09-04T05:32:27.275Z,97205.56
2023-09-04T05:34:53.904Z,97213.63
2023-09-04T05:37:20.513Z,97210.94
2023-09-04T05:39:47.096Z,97212.44
2023-09-04T05:42:13.701Z,97213.59
2023-09-04T05:44:40.320Z,97209.75
2023-09-04T05:47:06.907Z,97208.59
2023-09-04T05:49:33.529Z,97214.38
2023-09-04T05:52:00.148Z,97218.16
2023-09-04T05:54:26.748Z,97210.88
2023-09-04T05:56:53.340Z,97212.00
2023-09-04T05:59:19.939Z,97201.22
2023-09-04T06:01:46.547Z,97193.50
2023-09-04T06:04:13.146Z,97207.31
2023-09-04T06:06:39.746Z,97203.16
2023-09-04T06:09:06.555Z,97199.69
2023-09-04T06:11:33.160Z,97210.41
2023-09-04T06:13:59.756Z,97204.63
2023-09-04T06:16:26.388Z,97211.94
2023-09-04T06:18:53.057Z,97217.31
2023-09-04T06:21:19.685Z,97216.94
2023-09-04T06:23:46.265Z,97216.94
2023-09-04T06:26:12.858Z,97216.97
2023-09-04T06:28:39.486Z,97216.56
2023-09-04T06:31:06.113Z,97219.66
2023-09-04T06:33:32.889Z,97221.19
2023-09-04T06:35:59.543Z,97216.53
2023-09-04T06:38:26.527Z,97206.94
2023-09-04T06:40:53.216Z,97211.19
2023-09-04T06:43:19.932Z,97218.44
2023-09-04T06:45:46.605Z,97203.50
2023-09-04T06:48:13.330Z,97204.69
2023-09-04T06:50:39.977Z,97205.81
2023-09-04T06:53:06.570Z,97202.34
2023-09-04T06:55:33.225Z,97205.03
2023-09-04T06:57:59.856Z,97207.38
2023-09-04T07:00:26.448Z,97212.34
2023-09-04T07:02:53.087Z,97215.03
2023-09-04T07:05:19.844Z,97211.97
2023-09-04T07:07:46.454Z,97217.34
2023-09-04T07:10:13.072Z,97213.88
2023-09-04T07:12:39.692Z,97215.75
2023-09-04T07:15:06.285Z,97220.00
2023-09-04T07:17:33.084Z,97217.28
2023-09-04T07:19:59.749Z,97220.75
2023-09-04T07:22:26.390Z,97218.44
2023-09-04T07:24:52.992Z,97228.81
2023-09-04T07:27:19.639Z,97222.66
2023-09-04T07:29:46.255Z,97217.69
2023-09-04T07:32:12.830Z,97223.47
2023-09-04T07:34:39.437Z,97225.41
2023-09-04T07:37:06.031Z,97221.97
2023-09-04T07:39:32.632Z,97218.50
2023-09-04T07:41:59.228Z,97215.44
2023-09-04T07:44:25.832Z,97215.44
2023-09-04T07:46:54.128Z,97220.03
2023-09-04T07:49:20.959Z,97224.25
2023-09-04T07:51:47.567Z,97232.31
2023-09-04T07:54:14.309Z,97226.19
2023-09-04T07:56:42.438Z,97225.41
2023-09-04T07:59:09.667Z,97226.19
2023-09-04T08:01:36.274Z,97225.78
2023-09-04T08:04:03.070Z,97220.78
2023-09-04T08:06:29.856Z,97220.75
2023-09-04T08:08:56.479Z,97218.06
2023-09-04T08:11:23.081Z,97227.28
2023-09-04T08:13:49.688Z,97225.00
2023-09-04T08:16:16.330Z,97225.78
2023-09-04T08:18:42.945Z,97218.44
2023-09-04T08:21:09.551Z,97219.19
2023-09-04T08:23:36.369Z,97221.53
2023-09-04T08:26:03.004Z,97218.50
2023-09-04T08:28:29.604Z,97221.53
2023-09-04T08:30:56.221Z,97231.16
2023-09-04T08:33:24.659Z,97221.13
2023-09-04T08:35:51.644Z,97215.44
2023-09-04T08:38:18.239Z,97219.28
2023-09-04T08:40:44.974Z,97213.13
2023-09-04T08:43:11.596Z,97211.56
2023-09-04T08:45:38.206Z,97208.88
2023-09-04T08:48:04.859Z,97211.56
2023-09-04T08:50:31.500Z,97212.34
2023-09-04T08:52:58.131Z,97215.81
2023-09-04T08:55:24.725Z,97200.81
2023-09-04T08:57:51.313Z,97198.88
2023-09-04T09:00:17.934Z,97206.97
2023-09-04T09:02:44.674Z,97213.47
2023-09-04T09:05:11.361Z,97210.78
2023-09-04T09:07:37.978Z,97213.47
2023-09-04T09:10:04.580Z,97210.00
2023-09-04T09:12:31.281Z,97212.69
2023-09-04T09:14:57.866Z,97219.22
2023-09-04T09:17:24.482Z,97214.59
2023-09-04T09:19:51.096Z,97214.25
2023-09-04T09:22:17.682Z,97210.78
2023-09-04T09:24:44.294Z,97208.88
2023-09-04T09:27:10.898Z,97200.03
2023-09-04T09:29:37.490Z,97204.28
2023-09-04T09:32:04.113Z,97201.97
2023-09-04T09:34:30.768Z,97196.97
2023-09-04T09:36:57.393Z,97202.34
2023-09-04T09:39:23.988Z,97198.88
2023-09-04T09:41:50.581Z,97195.41
2023-09-04T09:44:17.300Z,97193.91
2023-09-04T09:46:43.950Z,97177.78
2023-09-04T09:49:10.570Z,97179.28
2023-09-04T09:51:37.170Z,97178.97
2023-09-04T09:54:03.775Z,97176.66
2023-09-04T09:56:30.453Z,97180.84
2023-09-04T09:58:57.080Z,97170.84
2023-09-04T10:01:23.758Z,97170.00
2023-09-04T10:03:50.392Z,97179.91
2023-09-04T10:06:17.006Z,97171.47
2023-09-04T10:08:43.605Z,97164.56
2023-09-04T10:11:10.200Z,97166.91
2023-09-04T10:13:36.792Z,97158.47
2023-09-04T10:16:03.465Z,97151.59
2023-09-04T10:18:30.166Z,97141.59
2023-09-04T10:20:56.759Z,97147.38
2023-09-04T10:23:23.357Z,97137.78
2023-09-04T10:25:49.948Z,97139.34
2023-09-04T10:28:19.548Z,97130.88
2023-09-04T10:30:50.428Z,97126.66
2023-09-04T10:33:17.043Z,97125.53
2023-09-04T10:35:43.656Z,97123.63
2023-09-04T10:38:10.266Z,97114.47
2023-09-04T10:40:36.871Z,97121.81
2023-09-04T10:43:03.530Z,97116.09
2023-09-04T10:45:30.206Z,97115.69
2023-09-04T10:47:56.881Z,97113.41
2023-09-04T10:50:23.496Z,97112.31
2023-09-04T10:52:50.114Z,97109.22
2023-09-04T10:55:16.939Z,97111.53
2023-09-04T10:57:43.673Z,97102.69
2023-09-04T11:00:10.281Z,97100.00
2023-09-04T11:02:36.938Z,97107.28
2023-09-04T11:05:03.569Z,97102.72
2023-09-04T11:07:30.171Z,97112.72
2023-09-04T11:09:56.759Z,97116.19
2023-09-04T11:12:23.365Z,97112.72
2023-09-04T11:14:50.064Z,97105.75
2023-09-04T11:17:16.752Z,97108.06
2023-09-04T11:19:43.367Z,97104.19
2023-09-04T11:22:09.993Z,97096.88
2023-09-04T11:24:36.601Z,97099.22
2023-09-04T11:27:03.203Z,97094.19
2023-09-04T11:29:29.792Z,97090.34
2023-09-04T11:34:42.955Z,97084.97
2023-09-04T11:37:09.556Z,97088.03
2023-09-04T11:42:02.828Z,97082.28
2023-09-04T11:44:29.437Z,97078.84
2023-09-04T11:46:56.037Z,97083.47
2023-09-04T11:49:22.637Z,97075.78
2023-09-04T11:51:49.248Z,97072.69
2023-09-04T11:54:15.836Z,97079.66
2023-09-04T11:56:42.431Z,97074.28
2023-09-04T11:59:09.030Z,97074.66
2023-09-04T12:01:35.720Z,97072.25
2023-09-04T12:04:02.383Z,97066.03
2023-09-04T12:06:28.983Z,97056.00
2023-09-04T12:08:55.578Z,97062.09
2023-09-04T12:11:22.199Z,97057.09
2023-09-04T12:13:48.886Z,97056.28
2023-09-04T12:16:15.617Z,97056.66
2023-09-04T12:18:42.232Z,97051.66
2023-09-04T12:21:08.846Z,97049.75
2023-09-04T12:23:35.438Z,97051.25
2023-09-04T12:26:02.127Z,97046.66
2023-09-04T12:28:28.881Z,97047.41
2023-09-04T12:30:55.478Z,97032.47
2023-09-04T12:33:22.114Z,97034.78
2023-09-04T12:35:48.710Z,97027.84
2023-09-04T12:38:15.307Z,97018.25
2023-09-04T12:40:41.929Z,97014.41
2023-09-04T12:43:08.532Z,97019.00
2023-09-04T12:45:35.192Z,97009.03
2023-09-04T12:48:01.913Z,97004.41
2023-09-04T12:50:28.558Z,97003.25
2023-09-04T12:52:55.154Z,97006.72
2023-09-04T12:55:21.751Z,97006.34
2023-09-04T12:57:48.355Z,97002.09
2023-09-04T13:00:14.994Z,97003.59
2023-09-04T13:02:41.667Z,97001.72
2023-09-04T13:05:08.402Z,97002.09
2023-09-04T13:07:35.047Z,96994.03
2023-09-04T13:10:01.651Z,96987.50
2023-09-04T13:12:28.274Z,96986.00
2023-09-04T13:14:56.637Z,96990.59
2023-09-04T13:17:23.521Z,96979.06
2023-09-04T13:19:50.155Z,96979.44
2023-09-04T13:22:16.785Z,96976.75
2023-09-04T13:24:43.403Z,96971.78
2023-09-04T13:27:10.002Z,96967.53
2023-09-04T13:29:36.647Z,96962.16
2023-09-04T13:32:03.265Z,96961.00
2023-09-04T13:34:29.872Z,96957.56
2023-09-04T13:36:56.478Z,96956.78
2023-09-04T13:39:23.088Z,96959.47
2023-09-04T13:41:49.702Z,96953.31
2023-09-04T13:44:16.325Z,96951.41
2023-09-04T13:46:42.996Z,96943.31
2023-09-04T13:49:12.435Z,96938.72
2023-09-04T13:51:39.036Z,96947.19
2023-09-04T13:54:05.679Z,96940.25
2023-09-04T13:56:32.330Z,96935.66
2023-09-04T13:58:58.927Z,96938.75
2023-09-04T14:01:25.624Z,96935.25
2023-09-04T14:03:52.272Z,96922.94
2023-09-04T14:06:18.879Z,96931.03
2023-09-04T14:08:45.484Z,96927.97
2023-09-04T14:11:12.309Z,96919.91
2023-09-04T14:13:38.899Z,96920.38
2023-09-04T14:16:05.563Z,96920.41
2023-09-04T14:18:32.163Z,96920.81
2023-09-04T14:20:58.866Z,96915.41
2023-09-04T14:23:25.704Z,96917.75
2023-09-04T14:25:52.604Z,96911.97
2023-09-04T14:28:19.320Z,96910.81
2023-09-04T14:30:46.009Z,96905.44
2023-09-04T14:33:12.666Z,96909.66
2023-09-04T14:35:39.314Z,96906.59
2023-09-04T14:38:05.903Z,96903.53
2023-09-04T14:40:32.506Z,96901.59
2023-09-04T14:42:59.136Z,96890.03
2023-09-04T14:45:25.782Z,96891.97
2023-09-04T14:47:52.616Z,96886.97
2023-09-04T14:50:19.256Z,96886.59
2023-09-04T14:52:45.859Z,96895.81
2023-09-04T14:55:12.463Z,96889.25
2023-09-04T14:57:39.081Z,96891.59
2023-09-04T15:00:05.677Z,96893.88
2023-09-04T15:02:32.368Z,96886.59
2023-09-04T15:04:59.034Z,96881.19
2023-09-04T15:07:25.674Z,96883.13
2023-09-04T15:09:52.388Z,96882.75
2023-09-04T15:12:18.987Z,96885.81
2023-09-04T15:14:45.580Z,96878.50
2023-09-04T15:17:12.196Z,96877.69
2023-09-04T15:19:38.779Z,96878.06
2023-09-04T15:22:05.392Z,96866.53
2023-09-04T15:24:31.992Z,96871.53
2023-09-04T15:26:58.593Z,96876.91
2023-09-04T15:29:25.190Z,96870.78
2023-09-04T15:31:51.836Z,96860.34
2023-09-04T15:34:18.432Z,96861.88
2023-09-04T15:36:45.043Z,96863.03
2023-09-04T15:39:11.637Z,96859.97
2023-09-04T15:41:38.231Z,96866.16
2023-09-04T15:44:04.952Z,96865.78
2023-09-04T15:46:31.662Z,96853.84
2023-09-04T15:48:58.401Z,96865.38
2023-09-04T15:51:25.039Z,96859.25
2023-09-04T15:53:51.630Z,96859.25
2023-09-04T15:56:18.216Z,96842.69
2023-09-04T15:58:44.811Z,96841.91
2023-09-04T16:01:11.466Z,96843.81
2023-09-04T16:03:38.169Z,96847.69
2023-09-04T16:06:04.776Z,96847.28
2023-09-04T16:08:31.379Z,96845.72
2023-09-04T16:10:57.977Z,96848.03
2023-09-04T16:13:24.591Z,96844.16
2023-09-04T16:15:51.196Z,96839.13
2023-09-04T16:18:17.816Z,96840.69
2023-09-04T16:20:44.412Z,96830.31
2023-09-04T16:23:11.016Z,96825.31
2023-09-04T16:25:37.630Z,96824.91
2023-09-04T16:28:04.229Z,96823.38
2023-09-04T16:30:30.815Z,96826.47
2023-09-04T16:32:57.468Z,96819.53
2023-09-04T16:35:24.106Z,96823.38
2023-09-04T16:37:50.723Z,96824.91
2023-09-04T16:40:17.408Z,96819.13
2023-09-04T16:42:44.050Z,96819.50
2023-09-04T16:45:10.743Z,96817.53
2023-09-04T16:47:37.369Z,96810.19
2023-09-04T16:50:03.994Z,96815.56
2023-09-04T16:52:30.618Z,96811.69
2023-09-04T16:54:57.230Z,96818.25
2023-09-04T16:57:23.815Z,96807.81
2023-09-04T16:59:50.443Z,96804.00
2023-09-04T17:02:17.116Z,96800.91
2023-09-04T17:04:43.738Z,96806.72
2023-09-04T17:07:10.412Z,96803.66
2023-09-04T17:09:37.010Z,96803.22
2023-09-04T17:12:03.644Z,96793.97
2023-09-04T17:14:30.244Z,96796.31
2023-09-04T17:16:56.877Z,96796.31
2023-09-04T17:19:23.469Z,96795.56
2023-09-04T17:21:50.064Z,96794.81
2023-09-04T17:24:16.651Z,96789.38
2023-09-04T17:26:43.270Z,96791.69
2023-09-04T17:29:09.875Z,96784.38
2023-09-04T17:31:36.525Z,96790.91
2023-09-04T17:34:03.401Z,96791.66
2023-09-04T17:36:30.080Z,96795.53
2023-09-04T17:38:56.671Z,96794.78
2023-09-04T17:41:23.272Z,96800.97
2023-09-04T17:43:49.913Z,96794.03
2023-09-04T17:46:16.561Z,96800.19
2023-09-04T17:48:43.201Z,96799.06
2023-09-04T17:51:09.857Z,96807.53
2023-09-04T17:53:36.449Z,96797.19
2023-09-04T17:56:03.061Z,96799.53
2023-09-04T17:58:29.659Z,96803.00
2023-09-04T18:00:56.401Z,96802.59
2023-09-04T18:03:23.168Z,96801.81
2023-09-04T18:05:49.852Z,96804.13
2023-09-04T18:08:16.471Z,96805.28
2023-09-04T18:10:43.065Z,96807.56
2023-09-04T18:13:09.693Z,96801.78
2023-09-04T18:15:36.302Z,96806.38
2023-09-04T18:18:02.954Z,96794.66
2023-09-04T18:20:29.764Z,96801.91
2023-09-04T18:22:56.370Z,96796.84
2023-09-04T18:25:22.983Z,96811.19
2023-09-04T18:27:49.584Z,96809.34
2023-09-04T18:30:16.251Z,96805.91
2023-09-04T18:32:42.910Z,96810.94
2023-09-04T18:35:09.583Z,96810.16
2023-09-04T18:37:36.214Z,96815.59
2023-09-04T18:40:02.821Z,96809.44
2023-09-04T18:42:29.414Z,96804.81
2023-09-04T18:44:56.029Z,96814.06
2023-09-04T18:47:22.632Z,96814.88
2023-09-04T18:49:49.243Z,96806.00
2023-09-04T18:52:15.860Z,96810.63
2023-09-04T18:54:42.443Z,96817.19
2023-09-04T18:57:09.046Z,96816.78
2023-09-04T18:59:35.640Z,96812.56
2023-09-04T19:02:02.263Z,96809.09
2023-09-04T19:04:28.873Z,96818.72
2023-09-04T19:06:55.472Z,96817.94
2023-09-04T19:09:22.066Z,96817.97
2023-09-04T19:11:48.672Z,96806.41
2023-09-04T19:14:15.264Z,96812.56
2023-09-04T19:16:41.993Z,96810.25
2023-09-04T19:19:08.623Z,96815.25
2023-09-04T19:21:35.228Z,96815.25
2023-09-04T19:24:01.839Z,96816.03
2023-09-04T19:26:28.435Z,96809.09
2023-09-04T19:28:55.328Z,96816.03
2023-09-04T19:31:22.344Z,96817.97
2023-09-04T19:33:48.992Z,96812.97
2023-09-04T19:36:15.596Z,96823.00
2023-09-04T19:38:42.187Z,96818.38
2023-09-04T19:41:08.786Z,96816.44
2023-09-04T19:43:35.394Z,96817.63
2023-09-04T19:46:02.670Z,96824.16
2023-09-04T19:48:29.316Z,96814.56
2023-09-04T19:50:55.924Z,96822.66
2023-09-04T19:53:22.538Z,96804.91
2023-09-04T19:55:49.237Z,96805.72
2023-09-04T19:58:15.825Z,96808.41
2023-09-04T20:00:42.418Z,96814.16
2023-09-04T20:03:09.134Z,96802.22
2023-09-04T20:05:35.787Z,96809.53
2023-09-04T20:08:02.391Z,96813.38
2023-09-04T20:10:29.000Z,96808.75
2023-09-04T20:12:55.595Z,96805.28
2023-09-04T20:15:22.206Z,96808.38
2023-09-04T20:17:48.844Z,96814.53
2023-09-04T20:20:15.471Z,96809.53
2023-09-04T20:22:42.080Z,96810.69
2023-09-04T20:25:08.670Z,96812.63
2023-09-04T20:27:35.268Z,96813.78
2023-09-04T20:30:01.901Z,96814.16
2023-09-04T20:32:28.597Z,96813.78
2023-09-04T20:34:55.258Z,96813.03
2023-09-04T20:37:21.885Z,96819.94
2023-09-04T20:39:48.479Z,96819.94
2023-09-04T20:42:15.080Z,96811.88
2023-09-04T20:44:41.700Z,96811.09
2023-09-04T20:47:08.300Z,96813.78
2023-09-04T20:49:34.904Z,96815.34
2023-09-04T20:52:01.533Z,96811.47
2023-09-04T20:54:28.129Z,96812.63
2023-09-04T20:56:54.814Z,96811.47
2023-09-04T20:59:21.445Z,96813.78
2023-09-04T21:01:48.061Z,96809.56
2023-09-04T21:04:14.673Z,96817.25
2023-09-04T21:06:41.312Z,96803.00
2023-09-04T21:09:07.919Z,96811.84
2023-09-04T21:11:34.544Z,96807.63
2023-09-04T21:14:01.158Z,96808.03
2023-09-04T21:16:27.787Z,96801.88
2023-09-04T21:18:54.389Z,96800.34
2023-09-04T21:21:20.981Z,96802.25
2023-09-04T21:23:47.570Z,96805.72
2023-09-04T21:26:14.179Z,96799.19
2023-09-04T21:28:40.788Z,96801.09
2023-09-04T21:31:07.407Z,96803.41
2023-09-04T21:33:34.204Z,96799.19
2023-09-04T21:36:00.816Z,96798.03
2023-09-04T21:38:27.717Z,96799.94
2023-09-04T21:40:54.568Z,96798.03
2023-09-04T21:43:21.175Z,96794.94
2023-09-04T21:45:47.807Z,96797.25
2023-09-04T21:48:14.408Z,96795.75
2023-09-04T21:50:40.989Z,96800.34
2023-09-04T21:53:07.606Z,96795.34
2023-09-04T21:55:34.203Z,96799.19
2023-09-04T21:58:00.804Z,96799.97
2023-09-04T22:00:27.413Z,96797.66
2023-09-04T22:02:54.100Z,96792.66
2023-09-04T22:05:20.728Z,96791.50
2023-09-04T22:07:47.313Z,96786.88
2023-09-04T22:10:13.902Z,96797.66
2023-09-04T22:12:40.532Z,96793.41
2023-09-04T22:15:07.182Z,96796.53
2023-09-04T22:17:33.794Z,96782.28
2023-09-04T22:20:00.419Z,96786.91
2023-09-04T22:22:27.084Z,96790.75
2023-09-04T22:24:53.699Z,96784.97
2023-09-04T22:27:20.316Z,96791.13
2023-09-04T22:29:46.941Z,96793.41
2023-09-04T22:32:13.552Z,96791.91
2023-09-04T22:34:40.244Z,96789.94
2023-09-04T22:37:06.834Z,96791.50
2023-09-04T22:39:33.437Z,96792.66
2023-09-04T22:42:00.043Z,96797.28
2023-09-04T22:44:26.633Z,96793.03
2023-09-04T22:46:53.340Z,96791.50
2023-09-04T22:49:19.995Z,96795.72
2023-09-04T22:51:46.599Z,96797.66
2023-09-04T22:54:13.183Z,96796.13
2023-09-04T22:56:39.778Z,96799.22
2023-09-04T22:59:06.400Z,96801.13
2023-09-04T23:01:33.045Z,96803.84
2023-09-04T23:03:59.687Z,96806.53
2023-09-04T23:06:26.305Z,96804.97
2023-09-04T23:08:52.901Z,96806.91
2023-09-04T23:11:19.499Z,96811.53
2023-09-04T23:13:46.098Z,96805.38
2023-09-04T23:16:12.730Z,96808.44
2023-09-04T23:18:39.324Z,96803.44
2023-09-04T23:21:05.995Z,96799.22
2023-09-04T23:23:32.654Z,96807.28
2023-09-04T23:25:59.251Z,96804.22
2023-09-04T23:28:25.848Z,96802.28
2023-09-04T23:30:52.461Z,96798.81
2023-09-04T23:33:19.056Z,96800.38
2023-09-04T23:35:45.633Z,96803.44
2023-09-04T23:38:12.242Z,96797.66
2023-09-04T23:40:38.850Z,96808.84
2023-09-04T23:43:05.448Z,96808.84
2023-09-04T23:45:32.076Z,96810.75
2023-09-04T23:47:58.722Z,96806.16
2023-09-04T23:50:25.358Z,96809.25
2023-09-04T23:52:51.945Z,96810.41
2023-09-04T23:55:18.549Z,96805.03
2023-09-04T23:57:45.143Z,96806.56
